Mormon Lake, Arizona
Current Conditions -  °F | °C
As of 4:15 AM on Saturday 25 Oct 2014 (Local Time) from KSEZ Reporting Station
Clear Clear  
Wind Chill: 61°   Ceiling: Unl
Heat Index: 61°   Visibility: 10mi
Dew Point: 39°   Wind: 10mph
Humidity: 45%   Direction: 30°NNE
Pressure: 30.22"   Gusts: NA
Location:  34.91°N, 111.47°W
Report Text: KSEZ 251115Z AUTO 03009KT 10SM CLR 16/04 A3022 RMK AO2
Loading
Personal Weather Stations






























Interactive Weather Map
Tropical Storm Tracking
New forecast layout! Learn more

10-Day Weather Forecast

Advertisements
Track Severe Weather on mobile